Time;durP1;ratioP1;P1;durP2;ratioP2;P2;SDS_P1;SDS_P2;PMS_P1;PMS_P2;Temp;Humidity;BMP_temperature;BMP_pressure;BME280_temperature;BME280_humidity;BME280_pressure;Samples;Min_cycle;Max_cycle;Signal;HPM_P1;HPM_P2
2020/12/27 00:04:39;;;;;;;7.68;3.25;;;;;;;;;;4711437;28;20501;-59
2020/12/27 00:07:08;;;;;;;5.60;3.22;;;;;;;;;;4191540;34;20197;-62
2020/12/27 00:09:38;;;;;;;5.15;3.40;;;;;;;;;;4195834;34;20125;-60
2020/12/27 00:12:07;;;;;;;4.90;3.08;;;;;;;;;;4205571;34;20102;-59
2020/12/27 00:14:33;;;;;;;4.80;3.10;;;;;;;;;;4205457;34;20117;-60
2020/12/27 00:17:09;;;;;;;4.15;3.40;;;;;;;;;;4205451;34;20133;-60
2020/12/27 00:19:35;;;;;;;4.05;3.00;;;;;;;;;;4205361;34;20120;-60
2020/12/27 00:22:01;;;;;;;5.20;2.97;;;;;;;;;;4205504;34;20118;-59
2020/12/27 00:24:27;;;;;;;4.22;3.12;;;;;;;;;;4205251;34;20110;-59
2020/12/27 00:26:53;;;;;;;6.25;2.87;;;;;;;;;;4205638;34;20446;-60
2020/12/27 00:29:19;;;;;;;4.90;2.70;;;;;;;;;;4205475;34;20506;-57
2020/12/27 00:31:50;;;;;;;4.00;2.95;;;;;;;;;;4205612;34;20605;-57
2020/12/27 00:34:17;;;;;;;7.03;3.33;;;;;;;;;;4205542;34;20145;-57
2020/12/27 00:36:43;;;;;;;4.10;3.00;;;;;;;;;;4205307;34;20549;-57
2020/12/27 00:39:08;;;;;;;6.37;3.15;;;;;;;;;;4205261;34;20113;-59
2020/12/27 00:41:34;;;;;;;5.22;2.78;;;;;;;;;;4205387;34;20144;-58
2020/12/27 00:44:00;;;;;;;3.65;2.90;;;;;;;;;;4205205;34;20134;-59
2020/12/27 00:46:26;;;;;;;5.10;3.05;;;;;;;;;;4205289;34;20534;-59
2020/12/27 00:48:52;;;;;;;4.18;3.10;;;;;;;;;;4205049;34;20128;-59
2020/12/27 00:51:26;;;;;;;4.20;3.05;;;;;;;;;;4205213;34;20175;-59
2020/12/27 00:53:52;;;;;;;3.95;3.08;;;;;;;;;;4205135;34;20120;-60
2020/12/27 00:56:18;;;;;;;4.22;2.95;;;;;;;;;;4205148;34;20124;-60
2020/12/27 00:58:44;;;;;;;4.10;2.90;;;;;;;;;;4205049;34;20236;-60
2020/12/27 01:01:10;;;;;;;5.87;3.10;;;;;;;;;;4205140;34;20121;-59
2020/12/27 01:03:36;;;;;;;3.97;3.03;;;;;;;;;;4205061;34;20443;-60
2020/12/27 01:06:03;;;;;;;6.18;3.20;;;;;;;;;;4204958;34;20128;-60
2020/12/27 01:08:29;;;;;;;2.90;2.60;;;;;;;;;;4205064;34;20098;-58
2020/12/27 01:10:55;;;;;;;3.47;2.80;;;;;;;;;;4192035;34;20224;-59
2020/12/27 01:13:20;;;;;;;3.95;2.70;;;;;;;;;;4205213;34;20229;-58
2020/12/27 01:15:47;;;;;;;4.68;2.92;;;;;;;;;;4204920;34;20124;-60
2020/12/27 01:18:13;;;;;;;3.33;2.70;;;;;;;;;;4205151;34;20208;-60
2020/12/27 01:20:39;;;;;;;2.85;2.45;;;;;;;;;;4204941;34;20148;-58
2020/12/27 01:23:05;;;;;;;3.22;2.50;;;;;;;;;;4204901;34;20108;-59
2020/12/27 01:25:31;;;;;;;3.35;2.97;;;;;;;;;;4192045;34;20229;-59
2020/12/27 01:27:57;;;;;;;4.03;2.35;;;;;;;;;;4204875;34;20532;-59
2020/12/27 01:30:23;;;;;;;3.55;2.78;;;;;;;;;;4204741;34;20529;-59
2020/12/27 01:32:49;;;;;;;4.07;2.80;;;;;;;;;;4205110;34;20132;-59
2020/12/27 01:35:15;;;;;;;3.80;2.95;;;;;;;;;;4204682;34;20533;-59
2020/12/27 01:37:41;;;;;;;3.58;2.80;;;;;;;;;;4204191;34;20107;-58
2020/12/27 01:40:07;;;;;;;3.10;2.65;;;;;;;;;;4204724;34;20181;-58
2020/12/27 01:42:33;;;;;;;5.03;2.87;;;;;;;;;;4204981;34;20102;-58
2020/12/27 01:44:59;;;;;;;3.17;2.60;;;;;;;;;;4204773;34;20123;-58
2020/12/27 01:47:25;;;;;;;3.30;2.65;;;;;;;;;;4204783;34;20117;-59
2020/12/27 01:49:51;;;;;;;3.22;2.40;;;;;;;;;;4191660;34;20489;-59
2020/12/27 01:52:17;;;;;;;6.43;2.83;;;;;;;;;;4204695;34;20629;-59
2020/12/27 01:54:43;;;;;;;3.67;2.53;;;;;;;;;;4204691;34;20133;-59
2020/12/27 01:57:13;;;;;;;4.30;2.70;;;;;;;;;;4191780;34;20139;-60
2020/12/27 01:59:39;;;;;;;2.75;2.45;;;;;;;;;;4204597;34;20145;-58
2020/12/27 02:02:08;;;;;;;3.25;2.72;;;;;;;;;;4204555;34;20200;-57
2020/12/27 02:04:34;;;;;;;3.12;2.55;;;;;;;;;;4204182;34;20608;-58
2020/12/27 02:07:03;;;;;;;3.33;2.50;;;;;;;;;;4204492;34;20109;-58
2020/12/27 02:09:30;;;;;;;3.97;2.70;;;;;;;;;;4204476;34;20109;-58
2020/12/27 02:12:06;;;;;;;2.92;2.50;;;;;;;;;;4204672;34;20471;-58
2020/12/27 02:14:31;;;;;;;3.67;2.50;;;;;;;;;;4204331;34;20097;-59
2020/12/27 02:16:58;;;;;;;2.65;2.42;;;;;;;;;;4204604;34;20184;-59
2020/12/27 02:19:23;;;;;;;2.97;2.42;;;;;;;;;;4204373;34;20513;-59
2020/12/27 02:21:49;;;;;;;2.75;2.47;;;;;;;;;;4204405;34;20132;-58
2020/12/27 02:24:15;;;;;;;3.03;2.25;;;;;;;;;;4204227;34;20541;-59
2020/12/27 02:26:55;;;;;;;3.72;3.12;;;;;;;;;;4204548;34;20517;-58
2020/12/27 02:29:21;;;;;;;3.72;2.83;;;;;;;;;;4204280;34;20112;-59
2020/12/27 02:31:46;;;;;;;3.37;1.98;;;;;;;;;;4204284;34;20097;-59
2020/12/27 02:34:13;;;;;;;3.65;3.15;;;;;;;;;;4204101;34;20260;-59
2020/12/27 02:36:38;;;;;;;2.70;2.22;;;;;;;;;;4204246;34;20228;-59
2020/12/27 02:39:11;;;;;;;3.70;2.12;;;;;;;;;;4204044;34;20529;-60
2020/12/27 02:41:37;;;;;;;2.45;1.98;;;;;;;;;;4204256;34;20202;-60
2020/12/27 02:44:03;;;;;;;2.95;2.05;;;;;;;;;;4204104;34;20109;-60
2020/12/27 02:46:29;;;;;;;2.37;2.00;;;;;;;;;;4204172;34;20112;-60
2020/12/27 02:48:55;;;;;;;2.17;1.77;;;;;;;;;;4205469;34;20513;-60
2020/12/27 02:51:22;;;;;;;2.90;2.00;;;;;;;;;;4206559;34;20101;-59
2020/12/27 02:53:48;;;;;;;2.05;1.65;;;;;;;;;;4206182;34;20555;-60
2020/12/27 02:56:21;;;;;;;2.08;1.90;;;;;;;;;;4193272;34;20172;-59
2020/12/27 02:58:47;;;;;;;3.35;2.10;;;;;;;;;;4206142;34;20136;-59
2020/12/27 03:01:13;;;;;;;2.17;1.98;;;;;;;;;;4206147;34;20133;-60
2020/12/27 03:03:40;;;;;;;3.15;2.17;;;;;;;;;;4205985;34;20189;-59
2020/12/27 03:06:06;;;;;;;2.33;2.10;;;;;;;;;;4205969;34;20120;-59
2020/12/27 03:08:32;;;;;;;2.67;2.45;;;;;;;;;;4206390;34;20205;-60
2020/12/27 03:10:58;;;;;;;2.30;2.10;;;;;;;;;;4205934;34;20106;-59
2020/12/27 03:13:24;;;;;;;2.72;2.10;;;;;;;;;;4205988;34;20132;-60
2020/12/27 03:15:51;;;;;;;3.33;2.30;;;;;;;;;;4206112;34;20120;-59
2020/12/27 03:18:18;;;;;;;2.67;2.17;;;;;;;;;;4205944;34;20146;-59
2020/12/27 03:20:44;;;;;;;4.05;2.42;;;;;;;;;;4205885;34;20529;-58
2020/12/27 03:23:10;;;;;;;2.37;2.17;;;;;;;;;;4205871;34;20118;-61
2020/12/27 03:25:36;;;;;;;3.15;2.40;;;;;;;;;;4205906;34;20092;-61
2020/12/27 03:28:02;;;;;;;3.20;2.60;;;;;;;;;;4205896;34;20471;-60
2020/12/27 03:30:28;;;;;;;3.28;2.55;;;;;;;;;;4193008;34;20116;-59
2020/12/27 03:32:54;;;;;;;3.03;2.65;;;;;;;;;;4206230;34;20518;-59
2020/12/27 03:35:20;;;;;;;3.00;2.25;;;;;;;;;;4205728;34;20116;-59
2020/12/27 03:37:46;;;;;;;4.50;2.45;;;;;;;;;;4206025;34;20109;-59
2020/12/27 03:40:12;;;;;;;3.35;2.40;;;;;;;;;;4205712;34;20466;-59
2020/12/27 03:42:38;;;;;;;3.75;2.40;;;;;;;;;;4206016;34;20108;-61
2020/12/27 03:45:04;;;;;;;3.35;2.30;;;;;;;;;;4205873;34;20525;-62
2020/12/27 03:47:30;;;;;;;2.90;2.40;;;;;;;;;;4205771;34;20158;-61
2020/12/27 03:49:56;;;;;;;2.72;2.00;;;;;;;;;;4205557;34;20117;-61
2020/12/27 03:52:22;;;;;;;2.78;2.20;;;;;;;;;;4205731;34;20711;-61
2020/12/27 03:54:47;;;;;;;3.12;2.35;;;;;;;;;;4205545;34;20133;-60
2020/12/27 03:57:13;;;;;;;2.42;1.98;;;;;;;;;;4205706;34;20453;-60
2020/12/27 03:59:39;;;;;;;3.42;2.30;;;;;;;;;;4204922;34;20208;-60
2020/12/27 04:02:05;;;;;;;3.15;2.20;;;;;;;;;;4205647;34;20141;-61
2020/12/27 04:04:31;;;;;;;2.35;2.05;;;;;;;;;;4205405;34;20530;-61
2020/12/27 04:06:58;;;;;;;2.55;1.85;;;;;;;;;;4205460;34;20144;-59
2020/12/27 04:09:24;;;;;;;2.10;1.90;;;;;;;;;;4205283;34;20197;-59
2020/12/27 04:11:50;;;;;;;2.42;2.00;;;;;;;;;;4205529;34;20555;-59
2020/12/27 04:14:16;;;;;;;2.00;1.80;;;;;;;;;;4205386;34;20541;-60
2020/12/27 04:16:42;;;;;;;3.42;2.42;;;;;;;;;;4205718;34;20379;-62
2020/12/27 04:19:08;;;;;;;2.75;2.17;;;;;;;;;;4205360;34;20117;-60
2020/12/27 04:21:34;;;;;;;3.90;2.87;;;;;;;;;;4205794;34;20117;-60
2020/12/27 04:24:00;;;;;;;4.90;2.47;;;;;;;;;;4193921;34;20114;-58
2020/12/27 04:26:25;;;;;;;3.17;2.40;;;;;;;;;;4191767;34;20106;-59
2020/12/27 04:28:51;;;;;;;3.53;2.42;;;;;;;;;;4191398;34;20098;-59
2020/12/27 04:31:20;;;;;;;2.47;2.00;;;;;;;;;;4191520;34;20496;-58
2020/12/27 04:33:49;;;;;;;2.90;2.10;;;;;;;;;;4191391;34;20105;-59
2020/12/27 04:36:16;;;;;;;2.50;1.90;;;;;;;;;;4191419;34;20118;-60
2020/12/27 04:38:42;;;;;;;2.03;1.83;;;;;;;;;;4191367;34;20118;-59
2020/12/27 04:41:08;;;;;;;2.75;2.37;;;;;;;;;;4191117;34;20267;-58
2020/12/27 04:43:34;;;;;;;2.72;2.20;;;;;;;;;;4177553;34;20166;-58
2020/12/27 04:46:00;;;;;;;2.05;1.85;;;;;;;;;;4165999;34;20129;-58
2020/12/27 04:48:27;;;;;;;2.42;2.15;;;;;;;;;;4176655;34;20466;-57
2020/12/27 04:50:53;;;;;;;2.60;2.30;;;;;;;;;;4178122;34;20082;-57
2020/12/27 04:53:20;;;;;;;2.50;2.30;;;;;;;;;;4191284;34;20173;-57
2020/12/27 04:55:47;;;;;;;4.03;3.05;;;;;;;;;;4191305;34;20185;-57
2020/12/27 04:58:16;;;;;;;3.37;2.95;;;;;;;;;;4178704;34;20146;-55
2020/12/27 05:00:42;;;;;;;3.40;2.58;;;;;;;;;;4178672;34;20125;-59
2020/12/27 05:03:08;;;;;;;2.90;2.30;;;;;;;;;;4191454;34;20133;-58
2020/12/27 05:05:34;;;;;;;4.30;3.17;;;;;;;;;;4191177;34;20220;-58
2020/12/27 05:08:00;;;;;;;4.55;2.72;;;;;;;;;;4191128;34;20201;-59
2020/12/27 05:10:26;;;;;;;2.97;2.50;;;;;;;;;;4190824;34;20106;-59
2020/12/27 05:12:54;;;;;;;2.55;2.20;;;;;;;;;;4190423;34;20137;-59
2020/12/27 05:15:23;;;;;;;2.53;2.15;;;;;;;;;;4191006;34;20117;-60
2020/12/27 05:17:50;;;;;;;2.97;2.17;;;;;;;;;;4191299;34;20125;-59
2020/12/27 05:20:18;;;;;;;2.80;2.30;;;;;;;;;;4190918;34;20129;-58
2020/12/27 05:22:45;;;;;;;3.92;2.37;;;;;;;;;;4190983;34;20102;-60
2020/12/27 05:25:11;;;;;;;2.70;2.20;;;;;;;;;;4178130;34;20129;-59
2020/12/27 05:27:42;;;;;;;3.60;2.58;;;;;;;;;;4190948;34;20132;-59
2020/12/27 05:30:09;;;;;;;4.15;2.65;;;;;;;;;;4190837;34;20106;-60
2020/12/27 05:32:35;;;;;;;3.37;2.42;;;;;;;;;;4190729;34;20117;-58
2020/12/27 05:35:09;;;;;;;2.85;2.10;;;;;;;;;;4192585;34;20129;-57
2020/12/27 05:37:36;;;;;;;2.22;1.98;;;;;;;;;;4181350;34;20158;-59
2020/12/27 05:40:06;;;;;;;2.90;2.60;;;;;;;;;;4189713;34;20125;-58
2020/12/27 05:42:32;;;;;;;2.55;2.28;;;;;;;;;;4202348;34;20118;-58
2020/12/27 05:45:14;;;;;;;5.05;2.95;;;;;;;;;;4190327;34;20105;-58
2020/12/27 05:47:41;;;;;;;3.17;2.37;;;;;;;;;;4178437;34;20107;-56
2020/12/27 05:50:11;;;;;;;3.78;2.55;;;;;;;;;;4190235;34;20118;-57
2020/12/27 05:52:37;;;;;;;3.08;2.47;;;;;;;;;;4188817;34;20538;-57
2020/12/27 05:55:04;;;;;;;3.25;2.50;;;;;;;;;;4191307;34;20135;-61
2020/12/27 05:57:32;;;;;;;3.47;2.62;;;;;;;;;;4204571;34;20132;-61
2020/12/27 05:59:58;;;;;;;4.95;2.97;;;;;;;;;;4180020;34;20281;-61
2020/12/27 06:02:27;;;;;;;3.72;2.67;;;;;;;;;;4204404;34;21182;-61
2020/12/27 06:05:05;;;;;;;3.15;2.62;;;;;;;;;;4203969;34;20113;-61
2020/12/27 06:07:44;;;;;;;2.47;2.17;;;;;;;;;;4191776;34;20137;-61
2020/12/27 06:10:10;;;;;;;2.80;2.10;;;;;;;;;;4190604;34;20482;-61
2020/12/27 06:12:46;;;;;;;2.60;2.10;;;;;;;;;;4190817;34;20104;-62
2020/12/27 06:15:26;;;;;;;2.20;1.95;;;;;;;;;;4190316;34;20121;-61
2020/12/27 06:17:51;;;;;;;2.55;2.20;;;;;;;;;;4190369;34;20110;-62
2020/12/27 06:20:18;;;;;;;3.53;2.87;;;;;;;;;;4190417;34;20136;-60
2020/12/27 06:22:47;;;;;;;3.20;2.50;;;;;;;;;;4191148;34;20301;-60
2020/12/27 06:25:13;;;;;;;2.67;2.30;;;;;;;;;;4192649;34;20181;-60
2020/12/27 06:27:38;;;;;;;3.10;2.80;;;;;;;;;;4192751;34;20149;-59
2020/12/27 06:30:09;;;;;;;3.78;3.40;;;;;;;;;;4192324;34;20130;-60
2020/12/27 06:32:39;;;;;;;3.72;2.97;;;;;;;;;;4192331;34;20117;-61
2020/12/27 06:35:07;;;;;;;5.70;5.05;;;;;;;;;;4193413;34;20122;-60
2020/12/27 06:37:40;;;;;;;4.40;4.00;;;;;;;;;;4206229;34;20103;-60
2020/12/27 06:40:06;;;;;;;3.62;3.28;;;;;;;;;;4205963;34;20108;-64
2020/12/27 06:42:32;;;;;;;3.50;3.20;;;;;;;;;;4193556;34;20117;-62
2020/12/27 06:44:58;;;;;;;3.20;2.87;;;;;;;;;;4206019;34;20143;-62
2020/12/27 06:47:51;;;;;;;2.75;2.53;;;;;;;;;;4206096;34;20216;-62
2020/12/27 06:50:18;;;;;;;3.97;3.58;;;;;;;;;;4206110;34;20114;-63
2020/12/27 06:52:44;;;;;;;4.40;4.00;;;;;;;;;;4206053;34;20127;-63
2020/12/27 06:55:10;;;;;;;4.82;3.90;;;;;;;;;;4205905;34;20116;-63
2020/12/27 06:57:40;;;;;;;6.18;4.30;;;;;;;;;;4193473;34;20132;-61
2020/12/27 07:00:28;;;;;;;5.18;4.68;;;;;;;;;;4206109;34;20145;-63
2020/12/27 07:03:17;;;;;;;5.12;4.62;;;;;;;;;;4206350;34;20208;-62
2020/12/27 07:05:43;;;;;;;4.18;3.78;;;;;;;;;;4206115;34;20558;-63
2020/12/27 07:08:10;;;;;;;4.53;3.00;;;;;;;;;;4206078;34;20113;-63
2020/12/27 07:10:41;;;;;;;3.33;3.03;;;;;;;;;;4183728;34;20094;-62
2020/12/27 07:13:11;;;;;;;3.78;2.95;;;;;;;;;;4180171;34;20110;-59
2020/12/27 07:15:48;;;;;;;3.03;2.33;;;;;;;;;;4192135;34;20117;-60
2020/12/27 07:18:19;;;;;;;3.42;2.90;;;;;;;;;;4192354;34;20467;-60
2020/12/27 07:20:45;;;;;;;3.78;3.20;;;;;;;;;;4191893;34;20114;-60
2020/12/27 07:23:12;;;;;;;5.30;3.72;;;;;;;;;;4167920;34;20089;-60
2020/12/27 07:25:41;;;;;;;4.97;4.47;;;;;;;;;;4179290;34;20106;-60
2020/12/27 07:28:07;;;;;;;4.37;3.65;;;;;;;;;;4191891;34;20205;-60
2020/12/27 07:30:33;;;;;;;3.30;3.00;;;;;;;;;;4167993;34;20125;-60
2020/12/27 07:32:59;;;;;;;5.05;4.55;;;;;;;;;;4168013;34;20121;-59
2020/12/27 07:35:25;;;;;;;4.45;3.67;;;;;;;;;;4178744;34;20144;-60
2020/12/27 07:37:59;;;;;;;5.07;4.57;;;;;;;;;;4191852;34;20123;-58
2020/12/27 07:40:31;;;;;;;4.70;4.10;;;;;;;;;;4191733;34;20545;-61
2020/12/27 07:42:58;;;;;;;3.20;2.90;;;;;;;;;;4166563;34;20122;-59
2020/12/27 07:45:24;;;;;;;2.40;2.20;;;;;;;;;;4191786;34;20094;-59
2020/12/27 07:47:50;;;;;;;2.53;1.83;;;;;;;;;;4191992;34;20160;-60
2020/12/27 07:50:17;;;;;;;1.98;1.77;;;;;;;;;;4178939;34;20122;-60
2020/12/27 07:52:50;;;;;;;1.73;1.60;;;;;;;;;;4191343;34;20529;-62
2020/12/27 07:55:37;;;;;;;2.03;1.83;;;;;;;;;;4192117;34;20185;-61
2020/12/27 07:58:07;;;;;;;2.20;1.67;;;;;;;;;;4191896;34;20122;-61
2020/12/27 08:00:37;;;;;;;2.05;1.75;;;;;;;;;;4191647;34;20122;-58
2020/12/27 08:03:04;;;;;;;1.83;1.70;;;;;;;;;;4191875;34;20117;-62
2020/12/27 08:05:30;;;;;;;1.70;1.60;;;;;;;;;;4191750;34;20109;-60
2020/12/27 08:08:06;;;;;;;2.00;1.90;;;;;;;;;;4191707;34;20459;-59
2020/12/27 08:10:32;;;;;;;1.55;1.45;;;;;;;;;;4191766;34;20443;-60
2020/12/27 08:12:59;;;;;;;2.28;1.70;;;;;;;;;;4191701;34;20096;-62
2020/12/27 08:15:27;;;;;;;2.00;1.80;;;;;;;;;;4191555;34;20126;-66
2020/12/27 08:18:11;;;;;;;1.80;1.70;;;;;;;;;;4167859;34;20109;-64
2020/12/27 08:20:47;;;;;;;3.15;1.87;;;;;;;;;;4191717;34;20106;-66
2020/12/27 08:23:13;;;;;;;3.12;1.60;;;;;;;;;;4191562;34;20189;-65
2020/12/27 08:25:39;;;;;;;2.22;1.98;;;;;;;;;;4191592;34;20101;-65
2020/12/27 08:28:11;;;;;;;2.10;1.62;;;;;;;;;;4177655;34;20466;-66
2020/12/27 08:30:37;;;;;;;2.15;1.75;;;;;;;;;;4178143;34;20119;-66
2020/12/27 08:33:10;;;;;;;2.00;1.80;;;;;;;;;;4179445;34;20114;-65
2020/12/27 08:35:38;;;;;;;2.30;1.80;;;;;;;;;;4205437;34;20108;-66
2020/12/27 08:38:36;;;;;;;3.25;2.35;;;;;;;;;;4204639;34;20090;-67
2020/12/27 08:41:23;;;;;;;2.50;2.30;;;;;;;;;;4178507;34;20114;-66
2020/12/27 08:44:23;;;;;;;2.20;2.03;;;;;;;;;;4204904;34;20133;-67
2020/12/27 08:46:50;;;;;;;2.47;2.00;;;;;;;;;;4205001;34;20113;-65
2020/12/27 08:49:39;;;;;;;2.78;2.22;;;;;;;;;;4191725;34;20225;-66
2020/12/27 08:52:09;;;;;;;2.72;2.25;;;;;;;;;;4192147;34;20522;-64
2020/12/27 08:54:35;;;;;;;2.58;2.37;;;;;;;;;;4192228;34;20125;-66
2020/12/27 08:59:59;;;;;;;2.08;1.90;;;;;;;;;;4151400;34;20321;-66
2020/12/27 09:02:25;;;;;;;2.50;2.30;;;;;;;;;;4150116;34;20138;-66
2020/12/27 09:05:00;;;;;;;3.10;2.50;;;;;;;;;;4161043;34;20684;-66
2020/12/27 09:07:52;;;;;;;2.45;2.08;;;;;;;;;;4160598;34;20507;-67
2020/12/27 09:10:22;;;;;;;3.25;2.30;;;;;;;;;;4145550;34;20115;-65
2020/12/27 09:13:02;;;;;;;2.50;2.30;;;;;;;;;;4147791;34;20524;-66
2020/12/27 09:15:35;;;;;;;3.05;2.20;;;;;;;;;;4159085;34;20705;-66
2020/12/27 09:18:05;;;;;;;2.47;2.28;;;;;;;;;;4159360;34;20133;-66
2020/12/27 09:20:33;;;;;;;3.05;2.50;;;;;;;;;;4159419;34;20594;-66
2020/12/27 09:22:59;;;;;;;3.17;2.62;;;;;;;;;;4160396;34;20555;-65
2020/12/27 09:25:25;;;;;;;2.67;2.40;;;;;;;;;;4161453;34;20488;-65
2020/12/27 09:27:52;;;;;;;3.12;2.40;;;;;;;;;;4161564;34;20094;-68
2020/12/27 09:30:26;;;;;;;3.03;2.28;;;;;;;;;;4166905;34;20478;-68
2020/12/27 09:32:59;;;;;;;3.05;2.75;;;;;;;;;;4204695;34;20117;-68
2020/12/27 09:35:25;;;;;;;2.58;2.37;;;;;;;;;;4203922;34;20164;-67
2020/12/27 09:37:51;;;;;;;2.72;2.40;;;;;;;;;;4204942;34;20525;-63
2020/12/27 09:40:17;;;;;;;2.65;2.37;;;;;;;;;;4191699;34;20140;-67
2020/12/27 09:42:44;;;;;;;3.08;2.78;;;;;;;;;;4203552;34;20124;-63
2020/12/27 09:45:20;;;;;;;2.80;2.60;;;;;;;;;;4202522;34;20117;-65
2020/12/27 09:47:54;;;;;;;3.28;2.47;;;;;;;;;;4202589;34;20109;-67
2020/12/27 09:50:38;;;;;;;4.25;3.40;;;;;;;;;;4202340;34;20125;-67
2020/12/27 09:53:05;;;;;;;3.85;3.45;;;;;;;;;;4202753;34;20212;-66
2020/12/27 09:55:31;;;;;;;4.18;3.58;;;;;;;;;;4203257;34;20208;-67
2020/12/27 09:57:57;;;;;;;3.80;3.50;;;;;;;;;;4203070;34;20621;-67
2020/12/27 10:00:23;;;;;;;5.93;3.37;;;;;;;;;;4204550;34;20093;-68
2020/12/27 10:02:49;;;;;;;4.20;3.75;;;;;;;;;;4191703;34;20090;-67
2020/12/27 10:05:15;;;;;;;4.12;3.72;;;;;;;;;;4203933;34;20105;-66
2020/12/27 10:07:45;;;;;;;4.07;3.62;;;;;;;;;;4191545;34;20583;-68
2020/12/27 10:10:12;;;;;;;4.85;4.12;;;;;;;;;;4204041;34;20126;-67
2020/12/27 10:12:38;;;;;;;5.40;4.25;;;;;;;;;;4204670;34;20544;-67
2020/12/27 10:15:05;;;;;;;4.72;4.20;;;;;;;;;;4204423;34;20531;-66
2020/12/27 10:17:31;;;;;;;5.75;5.07;;;;;;;;;;4191612;34;20498;-67
2020/12/27 10:19:58;;;;;;;6.55;5.50;;;;;;;;;;4204228;34;20098;-65
2020/12/27 10:22:25;;;;;;;5.47;4.32;;;;;;;;;;4204292;34;20125;-66
2020/12/27 10:24:51;;;;;;;5.45;4.47;;;;;;;;;;4191343;34;20102;-66
2020/12/27 10:27:17;;;;;;;5.30;4.60;;;;;;;;;;4191815;34;20188;-64
2020/12/27 10:29:43;;;;;;;6.22;4.78;;;;;;;;;;4204124;34;20448;-65
2020/12/27 10:32:09;;;;;;;5.72;5.12;;;;;;;;;;4204324;34;20134;-65
2020/12/27 10:34:35;;;;;;;7.00;4.70;;;;;;;;;;4191299;34;20105;-65
2020/12/27 10:37:01;;;;;;;5.87;5.28;;;;;;;;;;4204116;34;20574;-64
2020/12/27 10:39:27;;;;;;;5.93;5.35;;;;;;;;;;4204079;34;20121;-64
2020/12/27 10:41:53;;;;;;;5.53;5.03;;;;;;;;;;4204017;34;20126;-67
2020/12/27 10:44:22;;;;;;;5.28;4.78;;;;;;;;;;4204267;34;20089;-69
2020/12/27 10:46:52;;;;;;;5.97;5.10;;;;;;;;;;4191197;34;20118;-66
2020/12/27 10:49:18;;;;;;;5.87;5.20;;;;;;;;;;4203899;34;20534;-69
2020/12/27 10:51:44;;;;;;;5.12;4.62;;;;;;;;;;4203849;34;20126;-68
2020/12/27 10:54:11;;;;;;;5.72;5.18;;;;;;;;;;4204214;34;20125;-69
2020/12/27 10:56:49;;;;;;;5.65;4.87;;;;;;;;;;4191493;34;20537;-69
2020/12/27 10:59:15;;;;;;;4.82;4.37;;;;;;;;;;4203852;34;20185;-69
2020/12/27 11:01:45;;;;;;;5.70;5.20;;;;;;;;;;4203807;34;20226;-69
2020/12/27 11:04:11;;;;;;;5.00;4.50;;;;;;;;;;4191189;34;20628;-69
2020/12/27 11:06:37;;;;;;;5.93;5.35;;;;;;;;;;4203534;34;20124;-68
2020/12/27 11:09:03;;;;;;;5.18;4.70;;;;;;;;;;4203678;34;20117;-69
2020/12/27 11:11:29;;;;;;;5.57;4.85;;;;;;;;;;4192960;34;20454;-69
2020/12/27 11:13:55;;;;;;;5.80;5.20;;;;;;;;;;4205783;34;20553;-69
2020/12/27 11:16:21;;;;;;;5.72;5.22;;;;;;;;;;4205932;34;20108;-69
2020/12/27 11:18:47;;;;;;;5.10;4.57;;;;;;;;;;4205847;34;20117;-72
2020/12/27 11:21:13;;;;;;;6.55;5.10;;;;;;;;;;4205829;34;20549;-69
2020/12/27 11:23:39;;;;;;;5.85;5.25;;;;;;;;;;4192997;34;20105;-68
2020/12/27 11:26:05;;;;;;;6.28;5.05;;;;;;;;;;4205606;34;20253;-69
2020/12/27 11:28:31;;;;;;;5.40;4.90;;;;;;;;;;4205873;34;20110;-68
2020/12/27 11:30:57;;;;;;;6.55;4.75;;;;;;;;;;4205564;34;20113;-68
2020/12/27 11:33:23;;;;;;;5.68;4.45;;;;;;;;;;4205894;34;20109;-67
2020/12/27 11:35:49;;;;;;;4.90;4.40;;;;;;;;;;4205706;34;20124;-70
2020/12/27 11:38:15;;;;;;;5.55;5.05;;;;;;;;;;4206002;34;20497;-65
2020/12/27 11:40:41;;;;;;;5.68;5.07;;;;;;;;;;4206386;34;20545;-65
2020/12/27 11:43:07;;;;;;;6.30;5.03;;;;;;;;;;4205855;34;20157;-65
2020/12/27 11:45:33;;;;;;;6.07;5.10;;;;;;;;;;4205816;34;20145;-67
2020/12/27 11:48:02;;;;;;;5.62;5.12;;;;;;;;;;4205713;34;20637;-68
2020/12/27 11:50:28;;;;;;;5.32;4.78;;;;;;;;;;4205507;34;20114;-66
2020/12/27 11:52:54;;;;;;;5.50;4.97;;;;;;;;;;4205687;34;20246;-65
2020/12/27 11:55:20;;;;;;;5.30;4.75;;;;;;;;;;4192710;34;20132;-65
2020/12/27 11:57:48;;;;;;;5.95;5.15;;;;;;;;;;4205688;34;20541;-66
2020/12/27 12:00:14;;;;;;;5.53;5.03;;;;;;;;;;4205510;34;20464;-68
2020/12/27 12:02:41;;;;;;;7.18;4.57;;;;;;;;;;4205703;34;20106;-68
2020/12/27 12:05:07;;;;;;;5.82;5.12;;;;;;;;;;4205337;34;20110;-67
2020/12/27 12:07:33;;;;;;;6.57;5.97;;;;;;;;;;4200016;34;20209;-67
2020/12/27 12:09:58;;;;;;;6.65;6.05;;;;;;;;;;4193055;34;20519;-64
2020/12/27 12:12:25;;;;;;;6.65;6.05;;;;;;;;;;4201708;34;20102;-67
2020/12/27 12:14:53;;;;;;;7.18;6.37;;;;;;;;;;4188760;34;20113;-67
2020/12/27 12:17:20;;;;;;;5.90;5.40;;;;;;;;;;4202564;34;20153;-66
2020/12/27 12:19:46;;;;;;;5.50;5.00;;;;;;;;;;4192176;34;20117;-69
2020/12/27 12:22:12;;;;;;;5.30;4.75;;;;;;;;;;4191158;34;20126;-66
2020/12/27 12:24:38;;;;;;;5.65;5.15;;;;;;;;;;4191659;34;20136;-65
2020/12/27 12:27:04;;;;;;;7.85;5.37;;;;;;;;;;4191365;34;20125;-65
2020/12/27 12:29:29;;;;;;;5.37;4.72;;;;;;;;;;4202448;34;20086;-67
2020/12/27 12:31:55;;;;;;;4.80;4.30;;;;;;;;;;4192131;34;20110;-68
2020/12/27 12:34:21;;;;;;;5.47;4.97;;;;;;;;;;4204666;34;20116;-68
2020/12/27 12:36:49;;;;;;;5.35;4.85;;;;;;;;;;4205153;34;20125;-66
2020/12/27 12:39:15;;;;;;;5.05;4.57;;;;;;;;;;4192579;34;20149;-66
2020/12/27 12:41:41;;;;;;;6.15;4.35;;;;;;;;;;4193493;34;20125;-66
2020/12/27 12:44:07;;;;;;;4.75;4.35;;;;;;;;;;4178245;34;20125;-65
2020/12/27 12:46:33;;;;;;;4.47;4.07;;;;;;;;;;4178521;34;20133;-65
2020/12/27 12:48:59;;;;;;;4.55;4.15;;;;;;;;;;4191399;34;20679;-72
2020/12/27 12:51:25;;;;;;;4.93;4.43;;;;;;;;;;4191231;34;20445;-62
2020/12/27 12:53:52;;;;;;;5.60;5.07;;;;;;;;;;4190907;34;20117;-70
2020/12/27 12:56:18;;;;;;;6.05;5.45;;;;;;;;;;4191294;34;20113;-68
2020/12/27 12:58:44;;;;;;;5.65;5.07;;;;;;;;;;4190749;34;20189;-70
2020/12/27 13:01:10;;;;;;;6.80;6.15;;;;;;;;;;4191140;34;20188;-71
2020/12/27 13:03:36;;;;;;;6.78;6.18;;;;;;;;;;4190640;34;20427;-69
2020/12/27 13:06:02;;;;;;;7.93;7.12;;;;;;;;;;4178177;34;20153;-71
2020/12/27 13:08:28;;;;;;;8.20;7.40;;;;;;;;;;4196548;34;20121;-69
2020/12/27 13:10:54;;;;;;;8.07;7.05;;;;;;;;;;4204623;34;20149;-64
2020/12/27 13:13:20;;;;;;;6.78;6.18;;;;;;;;;;4204798;34;20109;-63
2020/12/27 13:15:47;;;;;;;5.50;5.00;;;;;;;;;;4204514;34;20109;-64
2020/12/27 13:18:12;;;;;;;5.28;4.78;;;;;;;;;;4191777;34;20218;-63
2020/12/27 13:20:38;;;;;;;5.72;4.82;;;;;;;;;;4204536;34;20110;-64
2020/12/27 13:23:06;;;;;;;5.18;4.68;;;;;;;;;;4201359;34;20530;-65
2020/12/27 13:25:32;;;;;;;4.85;4.45;;;;;;;;;;4178053;34;20120;-64
2020/12/27 13:27:58;;;;;;;4.90;4.40;;;;;;;;;;4193591;34;20113;-66
2020/12/27 13:30:24;;;;;;;5.47;4.43;;;;;;;;;;4204520;34;20142;-64
2020/12/27 13:32:50;;;;;;;5.57;4.62;;;;;;;;;;4203629;34;20225;-65
2020/12/27 13:35:16;;;;;;;6.30;5.70;;;;;;;;;;4191769;34;20105;-65
2020/12/27 13:37:42;;;;;;;10.15;8.77;;;;;;;;;;4194264;34;20098;-63
2020/12/27 13:40:07;;;;;;;8.55;7.75;;;;;;;;;;4196464;34;20126;-62
2020/12/27 13:42:34;;;;;;;8.48;7.68;;;;;;;;;;4195840;34;20544;-64
2020/12/27 13:45:00;;;;;;;6.37;5.50;;;;;;;;;;4190464;34;20106;-63
2020/12/27 13:47:30;;;;;;;5.87;5.37;;;;;;;;;;4177687;34;20482;-66
2020/12/27 13:49:57;;;;;;;8.82;7.93;;;;;;;;;;4190872;34;20126;-66
2020/12/27 13:52:26;;;;;;;8.60;7.80;;;;;;;;;;4190561;34;20113;-62
2020/12/27 13:54:52;;;;;;;7.35;6.65;;;;;;;;;;4190634;34;20125;-64
2020/12/27 13:57:20;;;;;;;6.70;6.10;;;;;;;;;;4190702;34;20113;-64
2020/12/27 13:59:46;;;;;;;6.05;5.45;;;;;;;;;;4188917;34;20114;-63
2020/12/27 14:02:12;;;;;;;5.45;4.95;;;;;;;;;;4177673;34;20124;-69
2020/12/27 14:04:38;;;;;;;10.32;9.35;;;;;;;;;;4190544;34;20090;-61
2020/12/27 14:07:04;;;;;;;7.95;6.75;;;;;;;;;;4189503;34;20465;-62
2020/12/27 14:09:30;;;;;;;5.82;5.10;;;;;;;;;;4190144;34;20136;-63
2020/12/27 14:11:56;;;;;;;7.20;6.50;;;;;;;;;;4190434;34;20114;-62
2020/12/27 14:14:24;;;;;;;5.53;5.03;;;;;;;;;;4177513;34;20517;-64
2020/12/27 14:16:50;;;;;;;5.55;5.05;;;;;;;;;;4190168;34;20189;-64
2020/12/27 14:19:16;;;;;;;6.00;5.40;;;;;;;;;;4190223;34;20102;-64
2020/12/27 14:21:42;;;;;;;5.65;5.15;;;;;;;;;;4189434;34;20230;-65
2020/12/27 14:24:08;;;;;;;6.25;5.65;;;;;;;;;;4177795;34;20178;-63
2020/12/27 14:26:36;;;;;;;7.28;6.57;;;;;;;;;;4190521;34;20133;-64
2020/12/27 14:29:03;;;;;;;10.88;8.43;;;;;;;;;;4190285;34;20161;-64
2020/12/27 14:31:30;;;;;;;8.63;7.10;;;;;;;;;;4190234;34;20106;-63
2020/12/27 14:33:56;;;;;;;8.80;8.00;;;;;;;;;;4190361;34;20296;-64
2020/12/27 14:36:22;;;;;;;6.90;6.30;;;;;;;;;;4190215;34;20134;-65
2020/12/27 14:38:49;;;;;;;8.20;6.35;;;;;;;;;;4190129;34;20711;-64
2020/12/27 14:41:17;;;;;;;6.15;5.55;;;;;;;;;;4189968;34;20201;-63
2020/12/27 14:43:44;;;;;;;6.22;5.70;;;;;;;;;;4178154;34;20129;-64
2020/12/27 14:46:10;;;;;;;5.62;5.12;;;;;;;;;;4192084;34;20133;-63
2020/12/27 14:48:38;;;;;;;5.20;4.70;;;;;;;;;;4192655;34;20121;-62
2020/12/27 14:51:05;;;;;;;5.57;5.07;;;;;;;;;;4178576;34;20110;-63
2020/12/27 14:53:31;;;;;;;6.18;5.57;;;;;;;;;;4192476;34;20101;-63